Time;durP1;ratioP1;P1;durP2;ratioP2;P2;SDS_P1;SDS_P2;PMS_P1;PMS_P2;Temp;Humidity;BMP_temperature;BMP_pressure;BME280_temperature;BME280_humidity;BME280_pressure;Samples;Min_cycle;Max_cycle;Signal;HPM_P1;HPM_P2
2023/03/04 00:00:30;;;;;;;55.30;19.80;;;;;;;-0.53;84.23;98677.58;104693;1264;111442;-67
2023/03/04 00:02:57;;;;;;;39.20;15.70;;;;;;;-0.53;84.25;98677.09;104730;1261;99195;-66
2023/03/04 00:05:24;;;;;;;54.50;19.70;;;;;;;-0.55;84.04;98675.88;104693;1272;97884;-65
2023/03/04 00:07:51;;;;;;;62.80;22.80;;;;;;;-0.55;84.16;98673.06;104889;1263;97950;-66
2023/03/04 00:10:19;;;;;;;47.60;19.30;;;;;;;-0.57;84.17;98674.02;104699;1257;97824;-65
2023/03/04 00:12:46;;;;;;;48.60;18.40;;;;;;;-0.60;84.33;98667.54;104874;1263;98005;-66
2023/03/04 00:15:13;;;;;;;48.80;18.30;;;;;;;-0.63;84.45;98664.48;104906;1260;98008;-65
2023/03/04 00:17:40;;;;;;;51.30;19.70;;;;;;;-0.65;84.42;98657.38;104879;1261;98821;-66
2023/03/04 00:20:08;;;;;;;49.20;20.10;;;;;;;-0.68;84.50;98651.09;104931;1261;98577;-65
2023/03/04 00:22:35;;;;;;;51.90;18.40;;;;;;;-0.68;84.64;98650.48;104938;1261;98002;-65
2023/03/04 00:25:03;;;;;;;52.50;19.10;;;;;;;-0.70;84.58;98643.40;104976;1263;99221;-66
2023/03/04 00:27:30;;;;;;;53.90;19.20;;;;;;;-0.71;84.66;98639.77;104877;1263;97912;-65
2023/03/04 00:29:57;;;;;;;54.50;20.80;;;;;;;-0.71;84.72;98635.52;104568;1257;99650;-65
2023/03/04 00:32:24;;;;;;;63.30;21.40;;;;;;;-0.70;84.71;98634.14;104686;1260;97895;-71
2023/03/04 00:34:52;;;;;;;57.80;20.00;;;;;;;-0.66;84.60;98631.52;104690;1260;98840;-70
2023/03/04 00:37:19;;;;;;;55.70;19.00;;;;;;;-0.62;84.84;98629.86;104829;1260;99180;-67
2023/03/04 00:39:46;;;;;;;58.90;20.40;;;;;;;-0.62;84.77;98628.25;104846;1260;97974;-68
2023/03/04 00:42:13;;;;;;;56.70;20.40;;;;;;;-0.60;84.75;98627.27;104892;1278;99196;-67
2023/03/04 00:44:40;;;;;;;53.10;18.60;;;;;;;-0.60;84.78;98620.91;104939;1262;98894;-66
2023/03/04 00:47:08;;;;;;;57.20;18.10;;;;;;;-0.61;84.60;98618.63;104889;1257;97907;-67
2023/03/04 00:49:36;;;;;;;60.30;19.20;;;;;;;-0.63;84.69;98614.73;104952;1273;97983;-66
2023/03/04 00:52:03;;;;;;;56.10;19.40;;;;;;;-0.62;84.84;98611.69;104498;1265;98075;-67
2023/03/04 00:54:30;;;;;;;36.90;12.60;;;;;;;-0.60;84.72;98608.10;104914;1256;99070;-66
2023/03/04 00:56:57;;;;;;;52.10;19.00;;;;;;;-0.66;84.67;98608.80;104936;1257;97898;-66
2023/03/04 00:59:24;;;;;;;52.30;20.30;;;;;;;-0.67;84.91;98611.90;104966;1262;99231;-65
2023/03/04 01:01:51;;;;;;;54.60;19.90;;;;;;;-0.69;84.76;98603.05;104910;1261;98078;-66
2023/03/04 01:04:18;;;;;;;50.10;19.70;;;;;;;-0.70;84.76;98600.38;104438;1257;273520;-66
2023/03/04 01:06:46;;;;;;;53.30;19.50;;;;;;;-0.71;84.95;98594.98;104866;1261;99202;-67
2023/03/04 01:09:13;;;;;;;50.40;19.40;;;;;;;-0.73;85.10;98589.44;104690;1262;99227;-67
2023/03/04 01:11:40;;;;;;;47.30;17.70;;;;;;;-0.76;85.02;98582.38;104975;1262;97975;-67
2023/03/04 01:14:08;;;;;;;54.20;18.30;;;;;;;-0.77;85.02;98576.84;104591;1265;106697;-66
2023/03/04 01:16:35;;;;;;;54.50;20.00;;;;;;;-0.81;84.85;98573.66;104531;1262;98072;-67
2023/03/04 01:19:02;;;;;;;54.60;18.40;;;;;;;-0.81;84.91;98572.42;104511;1262;98354;-66
2023/03/04 01:21:30;;;;;;;54.30;18.30;;;;;;;-0.80;85.20;98571.40;104879;1260;99103;-66
2023/03/04 01:23:57;;;;;;;65.30;19.90;;;;;;;-0.78;85.02;98569.29;104822;1261;98012;-67
2023/03/04 01:26:24;;;;;;;60.70;21.40;;;;;;;-0.76;85.20;98562.21;104762;1258;97912;-66
2023/03/04 01:28:51;;;;;;;51.40;19.70;;;;;;;-0.76;85.09;98552.65;104778;1270;97985;-66
2023/03/04 01:31:18;;;;;;;57.70;20.20;;;;;;;-0.75;85.10;98550.73;104831;1258;99123;-66
2023/03/04 01:33:46;;;;;;;54.60;19.40;;;;;;;-0.74;84.95;98543.96;104569;1260;98801;-66
2023/03/04 01:36:13;;;;;;;60.00;19.30;;;;;;;-0.73;84.90;98536.33;104867;1261;98042;-66
2023/03/04 01:38:40;;;;;;;60.80;20.60;;;;;;;-0.73;84.74;98538.00;104924;1261;97975;-67
2023/03/04 01:41:07;;;;;;;58.80;20.20;;;;;;;-0.72;84.90;98533.94;104651;1261;97998;-65
2023/03/04 01:43:36;;;;;;;67.30;22.40;;;;;;;-0.72;84.90;98529.55;104963;1260;97986;-66
2023/03/04 01:46:04;;;;;;;57.40;20.00;;;;;;;-0.75;84.75;98528.98;104945;1260;97889;-66
2023/03/04 01:48:37;;;;;;;54.50;21.30;;;;;;;-0.78;84.92;98523.10;104615;1265;99429;-65
2023/03/04 01:51:10;;;;;;;40.10;14.50;;;;;;;-0.83;85.09;98522.71;104707;1260;107580;-64
2023/03/04 01:53:37;;;;;;;54.30;20.50;;;;;;;-0.89;85.16;98518.99;104763;1272;97982;-67
2023/03/04 01:56:19;;;;;;;46.30;15.90;;;;;;;-0.92;85.27;98518.57;104642;1262;98060;-67
2023/03/04 01:59:13;;;;;;;53.50;20.10;;;;;;;-0.95;85.24;98518.04;104610;1264;111769;-66
2023/03/04 02:01:44;;;;;;;40.10;16.60;;;;;;;-0.97;85.19;98516.11;104677;1265;97936;-66
2023/03/04 02:04:12;;;;;;;48.20;17.40;;;;;;;-1.00;85.39;98508.95;104841;1263;108520;-69
2023/03/04 02:06:40;;;;;;;38.70;15.40;;;;;;;-1.04;85.65;98501.56;104840;1263;97931;-67
2023/03/04 02:09:09;;;;;;;51.40;19.00;;;;;;;-1.06;85.57;98497.98;104619;1257;99684;-65
2023/03/04 02:11:37;;;;;;;63.70;21.70;;;;;;;-1.07;85.74;98495.33;104777;1257;112188;-67
2023/03/04 02:14:05;;;;;;;57.60;20.00;;;;;;;-1.05;85.81;98491.61;104732;1263;98095;-68
2023/03/04 02:16:32;;;;;;;46.90;16.90;;;;;;;-1.03;85.74;98485.40;104611;1264;107634;-66
2023/03/04 02:19:01;;;;;;;53.30;19.40;;;;;;;-1.02;85.58;98477.85;104878;1260;98509;-67
2023/03/04 02:21:30;;;;;;;48.60;17.70;;;;;;;-0.99;85.59;98475.52;104976;1261;98342;-67
2023/03/04 02:24:23;;;;;;;55.20;20.30;;;;;;;-0.95;85.51;98473.52;104641;1265;111208;-66
2023/03/04 02:26:50;;;;;;;47.60;15.70;;;;;;;-0.90;85.52;98473.41;104655;1266;99133;-66
2023/03/04 02:29:17;;;;;;;51.10;17.30;;;;;;;-0.88;85.14;98472.70;104922;1277;99227;-66
2023/03/04 02:31:53;;;;;;;34.90;13.10;;;;;;;-0.89;85.02;98470.23;104965;1262;97955;-66
2023/03/04 02:34:22;;;;;;;32.80;12.60;;;;;;;-0.94;84.69;98462.33;104639;1265;98195;-66
2023/03/04 02:36:52;;;;;;;41.80;15.90;;;;;;;-1.01;84.74;98460.36;104954;1261;113547;-67
2023/03/04 02:39:19;;;;;;;51.10;17.90;;;;;;;-1.09;84.71;98455.88;104983;1261;99224;-69
2023/03/04 02:41:54;;;;;;;44.50;16.60;;;;;;;-1.14;84.75;98456.38;104805;1261;97983;-67
2023/03/04 02:44:30;;;;;;;59.90;20.70;;;;;;;-1.20;84.64;98459.45;104434;1257;99218;-66
2023/03/04 02:46:58;;;;;;;54.10;18.70;;;;;;;-1.29;84.39;98458.95;104844;1260;98023;-65
2023/03/04 02:49:27;;;;;;;43.70;17.90;;;;;;;-1.40;84.37;98458.92;104580;1265;111269;-65
2023/03/04 02:52:05;;;;;;;43.70;16.70;;;;;;;-1.51;84.42;98453.06;104650;1257;98728;-64
2023/03/04 02:54:33;;;;;;;46.50;17.30;;;;;;;-1.61;84.68;98446.52;104961;1257;108658;-65
2023/03/04 02:57:04;;;;;;;51.60;19.40;;;;;;;-1.70;84.69;98439.75;104566;1257;97946;-65
2023/03/04 02:59:31;;;;;;;51.90;19.10;;;;;;;-1.76;84.83;98436.19;104969;1260;97983;-65
2023/03/04 03:01:59;;;;;;;62.70;19.40;;;;;;;-1.83;84.95;98431.01;104493;1265;110969;-67
2023/03/04 03:04:27;;;;;;;69.70;21.90;;;;;;;-1.86;85.22;98423.52;104835;1260;99188;-66
2023/03/04 03:06:55;;;;;;;69.90;21.90;;;;;;;-1.87;85.38;98421.41;104929;1272;108100;-67
2023/03/04 03:09:22;;;;;;;62.10;22.40;;;;;;;-1.89;85.53;98419.61;104616;1257;97951;-67
2023/03/04 03:11:49;;;;;;;58.40;20.90;;;;;;;-1.88;85.85;98409.20;104850;1263;98691;-65
2023/03/04 03:14:16;;;;;;;77.80;24.60;;;;;;;-1.86;85.94;98408.44;104680;1256;99198;-65
2023/03/04 03:16:44;;;;;;;64.30;20.70;;;;;;;-1.82;85.93;98406.24;104886;1261;97980;-66
2023/03/04 03:19:11;;;;;;;56.80;19.10;;;;;;;-1.80;85.95;98405.54;104787;1279;97930;-70
2023/03/04 03:21:38;;;;;;;61.10;22.10;;;;;;;-1.78;86.19;98402.77;104951;1261;99113;-66
2023/03/04 03:24:05;;;;;;;71.60;23.40;;;;;;;-1.77;86.28;98401.67;104928;1263;99311;-66
2023/03/04 03:26:32;;;;;;;52.60;18.50;;;;;;;-1.73;86.20;98400.62;105045;1267;99327;-67
2023/03/04 03:28:59;;;;;;;53.30;17.70;;;;;;;-1.71;86.01;98398.98;104923;1262;97925;-67
2023/03/04 03:31:26;;;;;;;57.80;19.80;;;;;;;-1.72;86.07;98402.20;104810;1262;97951;-67
2023/03/04 03:33:53;;;;;;;67.40;22.70;;;;;;;-1.76;86.06;98395.73;105055;1256;97826;-66
2023/03/04 03:36:20;;;;;;;55.80;19.70;;;;;;;-1.81;86.15;98396.50;104901;1258;112599;-66
2023/03/04 03:38:47;;;;;;;57.10;18.60;;;;;;;-1.86;85.93;98401.98;104942;1260;97896;-66
2023/03/04 03:41:14;;;;;;;51.60;17.90;;;;;;;-1.94;86.04;98402.14;104863;1262;98958;-67
2023/03/04 03:43:42;;;;;;;50.10;17.30;;;;;;;-1.98;86.29;98404.92;104819;1260;97907;-67
2023/03/04 03:46:09;;;;;;;48.80;16.80;;;;;;;-2.03;86.35;98404.13;104931;1260;97992;-66
2023/03/04 03:48:36;;;;;;;54.40;18.60;;;;;;;-2.04;86.45;98402.32;104731;1263;97922;-67
2023/03/04 03:51:04;;;;;;;49.10;17.60;;;;;;;-2.05;86.53;98408.48;104890;1257;98005;-68
2023/03/04 03:53:31;;;;;;;61.00;20.40;;;;;;;-2.07;86.46;98406.07;104852;1263;99247;-67
2023/03/04 03:55:59;;;;;;;62.80;20.00;;;;;;;-2.05;86.81;98402.52;104797;1260;97924;-68
2023/03/04 03:58:26;;;;;;;55.20;19.50;;;;;;;-1.98;86.67;98401.76;104957;1262;99206;-69
2023/03/04 04:00:53;;;;;;;55.40;19.20;;;;;;;-1.96;86.39;98407.43;104743;1257;98117;-67
2023/03/04 04:03:24;;;;;;;50.30;18.40;;;;;;;-1.96;86.61;98412.44;104777;1268;99066;-68
2023/03/04 04:05:51;;;;;;;51.20;17.20;;;;;;;-1.89;86.76;98413.85;104961;1263;109272;-66
2023/03/04 04:08:18;;;;;;;45.70;17.30;;;;;;;-1.84;86.49;98403.80;104771;1262;98000;-66
2023/03/04 04:10:46;;;;;;;44.90;15.70;;;;;;;-1.83;86.41;98401.88;104915;1271;97895;-66
2023/03/04 04:13:13;;;;;;;51.00;16.80;;;;;;;-1.89;86.52;98399.44;104919;1263;99526;-67
2023/03/04 04:15:40;;;;;;;43.60;16.10;;;;;;;-1.93;86.64;98404.27;104893;1261;99088;-66
2023/03/04 04:18:07;;;;;;;47.00;17.80;;;;;;;-1.94;86.83;98405.16;104718;1257;97896;-66
2023/03/04 04:20:35;;;;;;;49.10;16.40;;;;;;;-1.99;87.00;98401.33;104950;1262;98009;-66
2023/03/04 04:23:03;;;;;;;38.30;14.70;;;;;;;-2.04;87.11;98399.20;104953;1261;98401;-66
2023/03/04 04:25:30;;;;;;;46.30;18.00;;;;;;;-2.07;87.29;98400.39;104709;1262;98054;-66
2023/03/04 04:27:58;;;;;;;37.60;14.70;;;;;;;-2.07;87.51;98403.44;104908;1260;98008;-69
2023/03/04 04:30:25;;;;;;;51.70;18.00;;;;;;;-2.10;87.58;98405.26;104814;1263;98072;-65
2023/03/04 04:32:52;;;;;;;43.50;15.60;;;;;;;-2.10;87.56;98407.45;104929;1260;97957;-65
2023/03/04 04:35:19;;;;;;;48.20;16.60;;;;;;;-2.09;87.61;98407.92;104782;1262;98003;-66
2023/03/04 04:37:47;;;;;;;46.90;16.40;;;;;;;-2.07;87.74;98407.63;104812;1256;99342;-66
2023/03/04 04:40:15;;;;;;;56.20;18.10;;;;;;;-2.04;87.92;98409.02;104753;1260;98444;-68
2023/03/04 04:42:42;;;;;;;47.20;18.40;;;;;;;-2.04;88.03;98408.98;104943;1261;98348;-67
2023/03/04 04:45:10;;;;;;;50.30;17.40;;;;;;;-2.06;88.41;98409.54;104684;1262;97920;-67
2023/03/04 04:47:37;;;;;;;49.60;16.90;;;;;;;-2.08;88.63;98411.63;104659;1260;99093;-66
2023/03/04 04:50:06;;;;;;;51.80;17.30;;;;;;;-2.10;88.52;98412.77;104655;1270;97973;-66
2023/03/04 04:52:33;;;;;;;59.60;20.00;;;;;;;-2.07;88.57;98414.02;104719;1261;99190;-67
2023/03/04 04:55:00;;;;;;;52.50;17.60;;;;;;;-2.05;88.49;98415.90;104908;1263;97878;-66
2023/03/04 04:57:27;;;;;;;52.00;18.90;;;;;;;-2.02;88.32;98414.12;104817;1260;97928;-67
2023/03/04 04:59:54;;;;;;;52.70;18.50;;;;;;;-2.00;88.20;98415.73;104739;1271;97896;-67
2023/03/04 05:02:22;;;;;;;53.00;16.90;;;;;;;-1.99;88.24;98416.23;104824;1262;98792;-67
2023/03/04 05:04:49;;;;;;;49.20;18.20;;;;;;;-2.01;88.36;98418.60;104960;1262;97899;-67
2023/03/04 05:07:17;;;;;;;47.60;18.30;;;;;;;-2.02;88.31;98420.31;104884;1263;98031;-67
2023/03/04 05:09:44;;;;;;;49.90;18.80;;;;;;;-2.04;88.22;98418.61;105011;1261;98260;-67
2023/03/04 05:12:12;;;;;;;37.30;15.80;;;;;;;-2.08;88.53;98416.58;104916;1261;99018;-66
2023/03/04 05:14:39;;;;;;;41.80;16.30;;;;;;;-2.12;88.71;98414.19;104883;1257;98017;-67
2023/03/04 05:17:06;;;;;;;35.90;14.40;;;;;;;-2.17;88.82;98414.58;104631;1261;97857;-67
2023/03/04 05:19:33;;;;;;;43.60;15.70;;;;;;;-2.19;88.54;98412.92;104597;1256;98113;-67
2023/03/04 05:22:00;;;;;;;55.30;18.60;;;;;;;-2.21;88.69;98415.84;104906;1271;97916;-67
2023/03/04 05:24:28;;;;;;;50.40;18.30;;;;;;;-2.20;88.93;98412.41;104863;1262;98155;-67
2023/03/04 05:26:55;;;;;;;52.20;18.70;;;;;;;-2.19;88.75;98416.10;104930;1262;99221;-66
2023/03/04 05:29:22;;;;;;;53.50;18.30;;;;;;;-2.15;88.80;98415.80;104913;1257;97973;-66
2023/03/04 05:31:49;;;;;;;55.90;20.10;;;;;;;-2.11;88.67;98419.45;104999;1278;97912;-66
2023/03/04 05:34:17;;;;;;;52.40;18.30;;;;;;;-2.08;88.71;98418.58;104959;1278;98081;-66
2023/03/04 05:36:44;;;;;;;51.00;17.70;;;;;;;-2.02;88.43;98422.71;105005;1263;99225;-68
2023/03/04 05:39:11;;;;;;;39.90;15.30;;;;;;;-1.99;88.45;98424.94;104756;1260;97929;-67
2023/03/04 05:41:38;;;;;;;40.00;15.30;;;;;;;-1.97;88.36;98431.05;104868;1272;97915;-66
2023/03/04 05:44:05;;;;;;;44.30;16.40;;;;;;;-1.93;88.09;98430.69;104698;1266;98011;-66
2023/03/04 05:46:32;;;;;;;46.80;16.90;;;;;;;-1.91;88.04;98428.54;104836;1261;98042;-66
2023/03/04 05:49:00;;;;;;;36.10;13.80;;;;;;;-1.88;87.84;98428.76;104689;1260;97897;-66
2023/03/04 05:51:27;;;;;;;43.70;16.60;;;;;;;-1.85;87.60;98419.23;104936;1262;97904;-67
2023/03/04 05:53:54;;;;;;;48.50;17.40;;;;;;;-1.84;87.50;98424.30;104640;1269;97912;-66
2023/03/04 05:56:21;;;;;;;39.20;15.80;;;;;;;-1.84;87.35;98422.69;104692;1261;99301;-67
2023/03/04 05:58:48;;;;;;;41.20;17.50;;;;;;;-1.86;87.21;98418.59;104798;1262;97980;-67
2023/03/04 06:01:16;;;;;;;47.40;17.80;;;;;;;-1.84;87.11;98415.55;104745;1261;98050;-73
2023/03/04 06:03:43;;;;;;;49.90;19.00;;;;;;;-1.83;86.93;98412.34;104958;1263;98026;-68
2023/03/04 06:06:10;;;;;;;49.50;18.10;;;;;;;-1.85;87.34;98413.77;104710;1262;98344;-68
2023/03/04 06:08:37;;;;;;;45.10;17.50;;;;;;;-1.86;87.36;98413.22;104355;1265;98056;-69
2023/03/04 06:11:05;;;;;;;51.80;18.70;;;;;;;-1.87;87.40;98417.98;104230;1268;97924;-68
2023/03/04 06:13:33;;;;;;;55.10;19.20;;;;;;;-1.89;87.57;98421.38;104264;1268;98442;-70
2023/03/04 06:16:00;;;;;;;53.30;19.60;;;;;;;-1.89;87.66;98425.40;104215;1265;97994;-68
2023/03/04 06:18:28;;;;;;;55.60;19.10;;;;;;;-1.87;87.57;98428.99;104314;1278;98025;-66
2023/03/04 06:21:02;;;;;;;52.10;17.70;;;;;;;-1.84;87.55;98431.83;104391;1264;99397;-69
2023/03/04 06:23:29;;;;;;;53.20;19.60;;;;;;;-1.80;87.44;98432.98;104244;1267;98781;-69
2023/03/04 06:25:59;;;;;;;61.20;21.70;;;;;;;-1.75;87.26;98430.23;104038;1271;109571;-68
2023/03/04 06:28:27;;;;;;;77.40;25.30;;;;;;;-1.70;87.11;98429.64;104507;1257;99302;-66
2023/03/04 06:30:55;;;;;;;78.10;26.50;;;;;;;-1.67;86.99;98431.11;104939;1263;108338;-68
2023/03/04 06:33:23;;;;;;;67.40;24.20;;;;;;;-1.62;86.95;98429.90;104653;1265;98092;-69
2023/03/04 06:35:54;;;;;;;70.50;24.90;;;;;;;-1.56;86.80;98432.04;104817;1262;98259;-67
2023/03/04 06:38:23;;;;;;;67.10;21.30;;;;;;;-1.51;86.72;98432.79;104821;1263;112486;-66
2023/03/04 06:40:50;;;;;;;58.00;21.30;;;;;;;-1.49;86.65;98438.22;104971;1263;99301;-68
2023/03/04 06:43:17;;;;;;;46.20;18.40;;;;;;;-1.47;86.64;98435.56;104942;1263;98178;-68
2023/03/04 06:45:44;;;;;;;52.10;19.20;;;;;;;-1.46;86.52;98434.14;104655;1264;98009;-65
2023/03/04 06:48:12;;;;;;;40.10;17.80;;;;;;;-1.46;86.60;98435.41;104976;1262;97965;-65
2023/03/04 06:50:40;;;;;;;38.20;16.50;;;;;;;-1.47;86.40;98432.88;104891;1271;97985;-65
2023/03/04 06:53:07;;;;;;;47.10;17.90;;;;;;;-1.47;86.44;98428.78;104866;1263;99084;-65
2023/03/04 06:55:34;;;;;;;42.60;15.90;;;;;;;-1.46;86.65;98429.77;104829;1257;97912;-65
2023/03/04 06:58:01;;;;;;;57.10;19.50;;;;;;;-1.49;86.30;98431.31;104632;1267;98005;-64
2023/03/04 07:00:28;;;;;;;56.00;20.20;;;;;;;-1.48;86.57;98426.08;104651;1262;97873;-65
2023/03/04 07:02:57;;;;;;;52.00;19.70;;;;;;;-1.44;86.40;98427.61;104874;1263;98680;-65
2023/03/04 07:05:24;;;;;;;55.30;19.40;;;;;;;-1.39;86.36;98430.17;104972;1262;99506;-66
2023/03/04 07:07:52;;;;;;;58.50;19.30;;;;;;;-1.33;86.21;98430.18;104706;1261;108571;-66
2023/03/04 07:10:19;;;;;;;52.50;19.10;;;;;;;-1.26;86.15;98430.81;104725;1271;97931;-67
2023/03/04 07:12:46;;;;;;;51.90;18.80;;;;;;;-1.22;86.04;98432.41;104678;1262;97932;-66
2023/03/04 07:15:13;;;;;;;47.70;16.80;;;;;;;-1.18;85.56;98429.30;104734;1261;98030;-66
2023/03/04 07:17:40;;;;;;;50.20;19.10;;;;;;;-1.17;85.40;98431.36;104833;1257;97895;-66
2023/03/04 07:20:09;;;;;;;46.20;16.70;;;;;;;-1.15;85.60;98437.10;104823;1263;99253;-69
2023/03/04 07:22:36;;;;;;;51.10;19.30;;;;;;;-1.12;85.55;98440.22;104784;1264;97980;-72
2023/03/04 07:25:05;;;;;;;47.10;19.20;;;;;;;-1.15;85.49;98445.13;104952;1279;97982;-68
2023/03/04 07:27:32;;;;;;;51.80;19.60;;;;;;;-1.14;85.64;98448.73;104972;1263;111532;-67
2023/03/04 07:29:59;;;;;;;43.50;17.00;;;;;;;-1.12;85.55;98451.77;105006;1261;97912;-67
2023/03/04 07:32:26;;;;;;;47.60;18.80;;;;;;;-1.13;85.54;98450.73;104921;1262;98027;-67
2023/03/04 07:34:53;;;;;;;50.60;20.20;;;;;;;-1.12;85.59;98453.71;104925;1262;97925;-67
2023/03/04 07:37:21;;;;;;;46.90;17.90;;;;;;;-1.14;85.74;98447.92;104926;1257;97973;-68
2023/03/04 07:39:48;;;;;;;51.90;18.50;;;;;;;-1.15;85.71;98448.89;104912;1262;97912;-68
2023/03/04 07:42:14;;;;;;;47.30;18.60;;;;;;;-1.13;85.67;98449.72;104962;1262;97904;-67
2023/03/04 07:44:42;;;;;;;44.90;18.60;;;;;;;-1.09;85.56;98450.27;104956;1280;98404;-68
2023/03/04 07:47:09;;;;;;;41.60;17.20;;;;;;;-1.06;85.54;98449.56;104947;1263;97922;-67
2023/03/04 07:49:36;;;;;;;44.20;17.90;;;;;;;-1.05;85.08;98452.60;105044;1263;97966;-67
2023/03/04 07:52:04;;;;;;;42.00;17.10;;;;;;;-1.01;85.01;98453.42;104690;1257;98856;-66
2023/03/04 07:54:31;;;;;;;44.90;17.10;;;;;;;-0.98;84.83;98451.91;104744;1266;106663;-68
2023/03/04 07:56:58;;;;;;;41.70;17.40;;;;;;;-0.93;84.72;98456.20;104675;1265;97958;-67
2023/03/04 07:59:25;;;;;;;46.20;18.00;;;;;;;-0.86;84.97;98455.23;104681;1263;97873;-68
2023/03/04 08:01:52;;;;;;;38.10;15.00;;;;;;;-0.80;84.44;98460.02;104784;1272;97919;-69
2023/03/04 08:04:19;;;;;;;39.90;16.00;;;;;;;-0.81;84.05;98461.66;104830;1263;98037;-68
2023/03/04 08:06:47;;;;;;;40.00;16.30;;;;;;;-0.84;83.97;98468.40;104811;1267;98703;-68
2023/03/04 08:09:14;;;;;;;45.10;18.20;;;;;;;-0.84;84.03;98467.27;104896;1257;97983;-69
2023/03/04 08:11:42;;;;;;;40.40;17.30;;;;;;;-0.84;83.99;98467.23;104832;1270;99215;-69
2023/03/04 08:14:13;;;;;;;40.60;16.90;;;;;;;-0.84;83.79;98468.23;104746;1263;98035;-67
2023/03/04 08:16:41;;;;;;;47.90;19.40;;;;;;;-0.83;84.00;98471.05;104935;1263;99218;-67
2023/03/04 08:19:10;;;;;;;53.00;20.20;;;;;;;-0.79;84.07;98472.73;104933;1262;97899;-67
2023/03/04 08:21:37;;;;;;;61.40;21.10;;;;;;;-0.74;83.94;98473.56;104600;1265;98089;-68
2023/03/04 08:24:08;;;;;;;53.00;21.40;;;;;;;-0.66;83.92;98474.88;104903;1270;99227;-69
2023/03/04 08:26:40;;;;;;;50.30;18.20;;;;;;;-0.61;83.12;98476.59;104960;1263;112202;-68
2023/03/04 08:29:10;;;;;;;45.70;18.00;;;;;;;-0.59;82.93;98478.23;104555;1267;98174;-68
2023/03/04 08:31:38;;;;;;;43.80;17.20;;;;;;;-0.58;82.97;98477.64;104768;1261;108647;-69
2023/03/04 08:34:07;;;;;;;57.90;19.20;;;;;;;-0.55;82.74;98477.10;104600;1273;98022;-66
2023/03/04 08:36:35;;;;;;;46.00;18.20;;;;;;;-0.53;82.65;98477.95;105419;1258;98797;-68
2023/03/04 08:39:03;;;;;;;44.40;17.10;;;;;;;-0.50;82.74;98476.58;104694;1263;97921;-69
2023/03/04 08:41:31;;;;;;;46.10;17.40;;;;;;;-0.53;82.55;98480.11;104450;1268;98775;-69
2023/03/04 08:44:00;;;;;;;46.50;18.80;;;;;;;-0.57;82.37;98476.41;104279;1270;108636;-68
2023/03/04 08:46:27;;;;;;;44.60;17.70;;;;;;;-0.59;82.65;98478.06;104252;1276;98014;-67
2023/03/04 08:48:54;;;;;;;48.90;18.50;;;;;;;-0.58;82.70;98480.17;104295;1266;99678;-70
2023/03/04 08:51:22;;;;;;;40.40;16.20;;;;;;;-0.56;82.73;98483.96;104558;1269;98063;-68
2023/03/04 08:53:49;;;;;;;42.70;17.60;;;;;;;-0.60;82.41;98484.52;104543;1277;99211;-68
2023/03/04 08:56:16;;;;;;;45.10;18.90;;;;;;;-0.62;82.65;98487.77;104352;1275;99432;-68
2023/03/04 08:58:43;;;;;;;44.10;17.90;;;;;;;-0.66;82.60;98486.89;104404;1268;97935;-66
2023/03/04 09:01:13;;;;;;;56.80;21.00;;;;;;;-0.67;82.96;98494.61;104998;1263;97922;-67
2023/03/04 09:03:42;;;;;;;56.50;21.30;;;;;;;-0.64;83.03;98487.99;104854;1260;112017;-67
2023/03/04 09:06:16;;;;;;;57.00;21.90;;;;;;;-0.54;83.33;98487.70;104775;1267;99029;-67
2023/03/04 09:08:44;;;;;;;59.90;23.10;;;;;;;-0.36;83.17;98484.60;104778;1265;108250;-66
2023/03/04 09:11:12;;;;;;;54.10;20.20;;;;;;;-0.21;82.43;98479.23;104953;1271;98427;-67
2023/03/04 09:13:39;;;;;;;59.90;22.70;;;;;;;-0.10;81.97;98479.05;104949;1263;98353;-67
2023/03/04 09:16:13;;;;;;;62.00;22.70;;;;;;;0.01;81.41;98473.65;104522;1265;111779;-67
2023/03/04 09:18:41;;;;;;;52.00;21.00;;;;;;;0.08;81.19;98471.42;104751;1263;99377;-67
2023/03/04 09:21:09;;;;;;;51.50;20.90;;;;;;;0.17;81.29;98467.29;104643;1267;108194;-67
2023/03/04 09:23:37;;;;;;;57.90;24.90;;;;;;;0.19;80.78;98470.71;104956;1262;97918;-67
2023/03/04 09:26:25;;;;;;;58.90;23.30;;;;;;;0.19;80.71;98472.64;104964;1263;97886;-69
2023/03/04 09:28:57;;;;;;;47.40;19.80;;;;;;;0.17;80.88;98466.59;104617;1265;110605;-67
2023/03/04 09:31:25;;;;;;;54.50;20.80;;;;;;;0.12;80.47;98467.13;104956;1270;99106;-68
2023/03/04 09:33:53;;;;;;;63.00;22.10;;;;;;;0.06;80.58;98463.57;105001;1262;108586;-66
2023/03/04 09:36:21;;;;;;;53.20;22.20;;;;;;;-0.01;80.74;98466.25;104971;1271;99177;-67
2023/03/04 09:38:48;;;;;;;41.40;17.80;;;;;;;-0.05;80.91;98467.27;104897;1268;97819;-68
2023/03/04 09:41:25;;;;;;;47.70;19.40;;;;;;;-0.13;80.79;98465.98;104839;1279;97944;-66
2023/03/04 09:43:54;;;;;;;58.60;23.60;;;;;;;-0.18;81.19;98471.36;104834;1264;99035;-67
2023/03/04 09:46:37;;;;;;;66.10;24.50;;;;;;;-0.18;81.36;98469.71;104980;1271;106781;-65
2023/03/04 09:49:05;;;;;;;61.40;22.00;;;;;;;-0.17;81.11;98460.16;104646;1266;98116;-66
2023/03/04 09:51:40;;;;;;;59.70;23.10;;;;;;;-0.17;81.04;98452.88;104926;1262;99140;-66
2023/03/04 09:54:26;;;;;;;53.30;20.30;;;;;;;-0.17;80.89;98455.05;104862;1271;112381;-66
2023/03/04 09:57:04;;;;;;;55.30;22.40;;;;;;;-0.18;80.92;98451.69;104701;1265;99179;-66
2023/03/04 09:59:44;;;;;;;45.00;17.70;;;;;;;-0.24;80.88;98451.17;104432;1265;108281;-67
2023/03/04 10:02:47;;;;;;;41.50;17.60;;;;;;;-0.26;81.16;98448.62;104477;1275;98141;-69
2023/03/04 10:05:19;;;;;;;41.10;14.80;;;;;;;-0.29;81.15;98442.33;104347;1260;99670;-69
2023/03/04 10:07:55;;;;;;;31.70;13.00;;;;;;;-0.33;81.49;98432.41;104677;1275;111311;-70
2023/03/04 10:10:30;;;;;;;44.80;18.30;;;;;;;-0.33;81.76;98434.09;104614;1263;98250;-67
2023/03/04 10:13:00;;;;;;;45.70;17.00;;;;;;;-0.33;81.55;98432.85;104708;1263;108840;-66
2023/03/04 10:15:39;;;;;;;48.60;18.40;;;;;;;-0.37;81.30;98429.81;104893;1275;97937;-67
2023/03/04 10:18:29;;;;;;;44.40;16.40;;;;;;;-0.34;81.52;98429.11;104923;1269;99528;-66
2023/03/04 10:21:37;;;;;;;40.10;14.30;;;;;;;-0.26;81.49;98419.25;104931;1262;112244;-66
2023/03/04 10:24:13;;;;;;;53.10;20.50;;;;;;;-0.19;81.37;98420.48;104169;1275;98335;-66
2023/03/04 10:26:44;;;;;;;47.30;17.00;;;;;;;-0.10;81.45;98419.90;104118;1280;106978;-66
2023/03/04 10:29:18;;;;;;;43.10;15.30;;;;;;;-0.04;81.07;98417.40;104186;1271;98000;-67
2023/03/04 10:31:46;;;;;;;45.90;17.60;;;;;;;0.02;80.78;98411.96;104352;1264;98076;-67
2023/03/04 10:34:15;;;;;;;44.20;17.60;;;;;;;0.07;80.96;98415.69;104316;1277;112308;-67
2023/03/04 10:37:01;;;;;;;50.50;18.40;;;;;;;0.10;81.03;98411.48;104386;1268;99037;-67
2023/03/04 10:39:30;;;;;;;34.90;14.50;;;;;;;0.12;80.85;98412.74;104190;1272;108564;-68
2023/03/04 10:42:03;;;;;;;37.10;15.50;;;;;;;0.14;80.92;98411.62;104189;1268;98192;-66
2023/03/04 10:44:33;;;;;;;31.30;12.80;;;;;;;0.15;80.42;98408.02;104109;1270;98212;-67
2023/03/04 10:47:00;;;;;;;45.40;18.10;;;;;;;0.15;80.32;98408.73;104339;1268;112596;-66
2023/03/04 10:49:29;;;;;;;33.60;14.00;;;;;;;0.18;80.56;98409.40;104182;1270;99371;-67
2023/03/04 10:52:22;;;;;;;44.70;17.20;;;;;;;0.15;80.01;98402.64;104289;1268;108667;-66
2023/03/04 10:54:52;;;;;;;48.00;17.30;;;;;;;0.15;80.34;98403.29;104479;1268;97966;-67
2023/03/04 10:57:33;;;;;;;46.30;17.40;;;;;;;0.20;80.24;98403.29;104553;1272;98289;-67
2023/03/04 11:00:20;;;;;;;47.10;17.40;;;;;;;0.24;80.00;98397.90;104549;1262;112269;-67
2023/03/04 11:02:48;;;;;;;42.50;16.20;;;;;;;0.28;79.78;98392.87;104536;1267;98981;-68
2023/03/04 11:05:17;;;;;;;44.60;17.60;;;;;;;0.32;79.37;98389.51;104535;1265;106675;-66
2023/03/04 11:07:48;;;;;;;27.00;11.80;;;;;;;0.36;79.56;98387.19;104722;1271;98771;-66
2023/03/04 11:10:29;;;;;;;40.30;15.60;;;;;;;0.38;79.37;98385.16;104660;1273;97981;-66
2023/03/04 11:13:15;;;;;;;38.80;16.30;;;;;;;0.40;79.59;98383.24;104636;1276;112208;-66
2023/03/04 11:15:48;;;;;;;35.00;13.40;;;;;;;0.44;79.74;98378.70;104916;1271;99200;-66
2023/03/04 11:18:19;;;;;;;31.70;13.70;;;;;;;0.44;79.40;98375.78;104548;1276;108120;-67